< < Back
Terminal Aerodrome Forecast


Current Version              Previous Versions:   1  2  3  4  5  6  7  8  9  

Terminal Aerodrome Forecast

120
FTUS42 KFFC 122338
TAFATL
TAF
KATL 122338Z 1300/1406 32011G18KT P6SM FEW150
     FM130300 32014G22KT P6SM SKC
     FM131800 33012KT P6SM SKC
     FM140000 33009KT P6SM FEW250=



Latest METAR

633
SAUS70 KWBC 130000 RRK
MTRATL
METAR KATL 122352Z 31009KT 10SM CLR 12/M01 A3008 RMK AO2 SLP189
T01221006 10178 20122 53017


USA.gov is the U.S. government's official web portal to all federal, state and local government web resources and services.